Time;durP1;ratioP1;P1;durP2;ratioP2;P2;SDS_P1;SDS_P2;PMS_P1;PMS_P2;Temp;Humidity;BMP_temperature;BMP_pressure;BME280_temperature;BME280_humidity;BME280_pressure;Samples;Min_cycle;Max_cycle;Signal;HPM_P1;HPM_P2
2021/04/13 00:01:12;;;;;;;0.40;0.40;;;;;;;4.91;100.00;98241.50;4995720;28;20944;-78
2021/04/13 00:03:38;;;;;;;0.40;0.40;;;;;;;5.03;99.83;98252.19;4998505;28;20046;-76
2021/04/13 00:06:03;;;;;;;0.90;0.68;;;;;;;4.94;100.00;98249.13;4994623;28;20113;-77
2021/04/13 00:08:29;;;;;;;4.13;0.73;;;;;;;4.94;100.00;98238.28;4994990;28;20026;-77
2021/04/13 00:10:59;;;;;;;0.93;0.80;;;;;;;5.04;100.00;98246.53;5012265;28;20137;-75
2021/04/13 00:13:25;;;;;;;0.47;0.47;;;;;;;5.01;100.00;98251.66;5012667;28;20018;-77
2021/04/13 00:16:12;;;;;;;0.55;0.50;;;;;;;5.08;99.96;98246.84;4994461;28;20032;-77
2021/04/13 00:18:41;;;;;;;0.52;0.47;;;;;;;5.03;99.61;98242.19;5012814;28;20443;-77
2021/04/13 00:21:17;;;;;;;1.85;0.80;;;;;;;5.04;100.00;98238.41;4994886;28;20398;-76
2021/04/13 00:23:44;;;;;;;0.77;0.60;;;;;;;5.04;100.00;98241.13;4995416;28;20414;-77
2021/04/13 00:26:17;;;;;;;0.57;0.57;;;;;;;5.01;99.41;98241.59;4999130;28;20026;-77
2021/04/13 00:28:45;;;;;;;0.60;0.40;;;;;;;5.04;99.57;98237.59;5020418;28;20072;-80
2021/04/13 00:31:38;;;;;;;1.38;0.65;;;;;;;4.98;99.67;98238.59;5016890;28;20034;-79
2021/04/13 00:34:05;;;;;;;0.43;0.43;;;;;;;4.89;99.24;98232.78;5011986;28;20026;-77
2021/04/13 00:36:32;;;;;;;1.05;0.85;;;;;;;5.02;99.49;98231.59;4994439;28;20120;-79
2021/04/13 00:38:58;;;;;;;0.68;0.68;;;;;;;4.99;99.53;98232.09;4994017;28;20407;-78
2021/04/13 00:41:29;;;;;;;0.70;0.70;;;;;;;5.02;99.60;98232.41;5011807;28;20018;-80
2021/04/13 00:43:58;;;;;;;0.50;0.50;;;;;;;4.75;99.37;98231.53;5011216;28;20026;-80
2021/04/13 00:46:33;;;;;;;0.88;0.88;;;;;;;4.73;98.93;98230.97;4993782;28;20050;-78
2021/04/13 00:49:01;;;;;;;0.75;0.60;;;;;;;4.74;99.93;98219.03;5011729;28;20026;-78
2021/04/13 00:51:32;;;;;;;0.80;0.55;;;;;;;5.00;100.00;98226.44;5011311;28;20187;-77
2021/04/13 00:54:09;;;;;;;1.20;1.08;;;;;;;4.97;99.54;98224.22;5011343;28;20061;-78
2021/04/13 00:56:37;;;;;;;1.60;0.60;;;;;;;4.92;99.96;98216.00;4994129;28;20052;-77
2021/04/13 00:59:15;;;;;;;0.82;0.63;;;;;;;4.98;99.55;98230.47;4994107;28;20129;-78
2021/04/13 01:01:58;;;;;;;0.40;0.40;;;;;;;5.02;98.79;98223.44;5011165;28;20022;-78
2021/04/13 01:04:29;;;;;;;0.82;0.80;;;;;;;4.96;99.28;98222.56;5012107;28;20045;-78
2021/04/13 01:07:10;;;;;;;0.32;0.32;;;;;;;4.94;99.38;98226.63;5013221;28;20038;-76
2021/04/13 01:09:51;;;;;;;0.60;0.60;;;;;;;4.95;98.93;98225.56;4998098;28;20052;-78
2021/04/13 01:12:29;;;;;;;0.73;0.73;;;;;;;5.05;99.37;98221.06;5002112;28;20465;-78
2021/04/13 01:14:56;;;;;;;2.85;0.82;;;;;;;4.98;98.14;98219.63;5018065;28;20458;-80
2021/04/13 01:17:23;;;;;;;0.57;0.57;;;;;;;4.84;97.33;98224.59;4999303;28;20541;-80
2021/04/13 01:20:14;;;;;;;2.45;0.90;;;;;;;4.92;99.03;98217.94;4997124;28;20107;-80
2021/04/13 01:25:47;;;;;;;0.50;0.50;;;;;;;4.70;97.84;98221.44;5011316;28;20073;-78
2021/04/13 01:28:20;;;;;;;1.98;0.93;;;;;;;4.81;97.94;98214.25;5011318;28;20036;-80
2021/04/13 01:30:50;;;;;;;1.40;0.75;;;;;;;4.74;97.48;98219.88;5011291;28;20041;-80
2021/04/13 01:33:34;;;;;;;1.92;1.30;;;;;;;4.67;97.49;98223.81;5014809;28;20403;-80
2021/04/13 01:36:00;;;;;;;0.88;0.73;;;;;;;4.59;95.40;98210.72;5015132;28;20613;-79
2021/04/13 01:38:39;;;;;;;0.98;0.90;;;;;;;4.72;97.09;98210.34;5015617;28;20086;-77
2021/04/13 01:41:21;;;;;;;1.33;0.77;;;;;;;4.73;96.00;98204.66;5015789;28;20021;-78
2021/04/13 01:43:48;;;;;;;0.88;0.60;;;;;;;4.63;97.81;98222.69;5015266;28;20118;-77
2021/04/13 01:46:16;;;;;;;0.55;0.55;;;;;;;4.66;98.46;98214.06;5015089;28;20491;-78
2021/04/13 01:48:43;;;;;;;2.15;0.70;;;;;;;4.62;95.17;98215.63;5015475;28;20076;-78
2021/04/13 01:51:11;;;;;;;1.05;0.63;;;;;;;4.52;95.96;98204.66;5015287;28;20064;-77
2021/04/13 01:53:39;;;;;;;0.88;0.80;;;;;;;4.55;95.19;98209.56;4998281;28;20491;-79
2021/04/13 01:56:09;;;;;;;0.75;0.73;;;;;;;4.60;93.74;98212.38;5016848;28;20125;-81
2021/04/13 01:58:45;;;;;;;0.22;0.22;;;;;;;4.71;95.91;98214.13;5017227;28;20521;-84
2021/04/13 02:01:31;;;;;;;0.75;0.75;;;;;;;4.76;97.53;98211.50;5019032;28;20026;-81
2021/04/13 02:04:23;;;;;;;0.70;0.70;;;;;;;4.70;97.98;98213.31;5021230;28;20034;-83
2021/04/13 02:06:55;;;;;;;0.47;0.47;;;;;;;4.79;96.16;98211.78;5019249;28;20026;-81
2021/04/13 02:09:44;;;;;;;0.52;0.50;;;;;;;4.89;96.09;98210.31;5015684;28;20026;-85
2021/04/13 02:12:28;;;;;;;1.48;0.90;;;;;;;4.84;97.32;98203.75;5016094;28;20034;-83
2021/04/13 02:15:22;;;;;;;1.42;1.23;;;;;;;4.85;98.67;98201.84;5018395;28;20034;-86
2021/04/13 02:17:54;;;;;;;0.77;0.70;;;;;;;4.70;99.55;98190.81;5024258;28;20033;-84
2021/04/13 02:20:26;;;;;;;0.75;0.73;;;;;;;4.69;99.37;98206.28;5020950;28;20080;-82
2021/04/13 02:22:51;;;;;;;0.68;0.68;;;;;;;4.88;100.00;98203.25;5016841;28;20038;-84
2021/04/13 02:25:24;;;;;;;0.50;0.50;;;;;;;4.79;100.00;98206.38;5016736;28;20125;-85
2021/04/13 02:27:50;;;;;;;1.00;0.60;;;;;;;4.82;100.00;98205.06;5016259;28;20033;-84
2021/04/13 02:30:27;;;;;;;0.73;0.73;;;;;;;4.81;99.41;98198.81;5016113;28;20042;-84
2021/04/13 02:32:53;;;;;;;0.88;0.88;;;;;;;4.91;100.00;98214.41;5016054;28;20034;-85
2021/04/13 02:35:22;;;;;;;0.32;0.32;;;;;;;4.81;98.04;98215.09;5015966;28;20459;-86
2021/04/13 02:37:52;;;;;;;0.50;0.50;;;;;;;4.66;97.19;98209.47;5016564;28;20084;-86
2021/04/13 02:40:17;;;;;;;0.40;0.40;;;;;;;4.68;99.11;98214.63;5016233;28;20108;-83
2021/04/13 02:42:50;;;;;;;0.85;0.70;;;;;;;4.64;100.00;98225.16;5016757;28;20080;-85
2021/04/13 02:45:32;;;;;;;0.50;0.50;;;;;;;4.52;100.00;98220.91;4999090;28;20048;-83
2021/04/13 02:48:13;;;;;;;0.40;0.40;;;;;;;4.48;100.00;98220.59;5016977;28;20466;-83
2021/04/13 02:50:45;;;;;;;0.95;0.90;;;;;;;4.48;99.60;98231.41;5009292;28;20149;-82
2021/04/13 02:53:14;;;;;;;0.30;0.30;;;;;;;4.49;98.49;98229.53;5016245;28;20038;-85
2021/04/13 02:55:50;;;;;;;0.50;0.50;;;;;;;4.59;100.00;98232.38;4999522;28;20061;-85
2021/04/13 02:58:17;;;;;;;1.30;0.98;;;;;;;4.52;99.63;98237.97;4998399;28;20053;-85
2021/04/13 03:00:46;;;;;;;0.52;0.40;;;;;;;4.55;99.45;98242.06;5016177;28;20402;-81
2021/04/13 03:03:16;;;;;;;2.00;0.50;;;;;;;4.66;100.00;98233.84;5016203;28;20029;-81
2021/04/13 03:05:42;;;;;;;0.35;0.35;;;;;;;4.61;99.77;98235.66;5017098;28;20065;-85
2021/04/13 03:08:12;;;;;;;0.75;0.63;;;;;;;4.55;100.00;98242.91;5031604;28;20018;-87
2021/04/13 03:10:51;;;;;;;0.75;0.50;;;;;;;4.58;99.70;98238.88;5019827;28;20056;-86
2021/04/13 03:13:26;;;;;;;3.50;0.52;;;;;;;4.28;97.83;98242.78;5016951;28;20522;-85
2021/04/13 03:15:54;;;;;;;0.73;0.73;;;;;;;4.19;98.47;98249.69;5020379;28;20037;-81
2021/04/13 03:18:24;;;;;;;0.35;0.35;;;;;;;4.26;98.76;98249.53;5021115;28;20094;-83
2021/04/13 03:20:53;;;;;;;0.35;0.35;;;;;;;4.32;98.47;98253.94;5043035;28;20033;-85
2021/04/13 03:23:22;;;;;;;0.43;0.43;;;;;;;4.22;98.58;98248.38;5043809;28;20033;-86
2021/04/13 03:25:55;;;;;;;1.05;0.70;;;;;;;4.22;98.46;98242.97;5023874;28;20056;-85
2021/04/13 03:28:26;;;;;;;0.45;0.45;;;;;;;4.20;98.61;98255.91;5019527;28;20488;-84
2021/04/13 03:30:53;;;;;;;0.30;0.30;;;;;;;4.07;99.07;98251.63;5034140;28;20119;-83
2021/04/13 03:33:24;;;;;;;0.40;0.40;;;;;;;4.00;99.47;98261.00;5034011;28;20030;-84
2021/04/13 03:35:50;;;;;;;0.38;0.38;;;;;;;3.89;98.99;98259.19;5015708;28;20025;-83
2021/04/13 03:38:21;;;;;;;1.13;0.52;;;;;;;4.06;99.62;98260.84;5034127;28;20410;-84
2021/04/13 03:40:50;;;;;;;0.30;0.30;;;;;;;3.98;98.67;98268.56;5034356;28;20040;-85
2021/04/13 03:43:29;;;;;;;0.35;0.35;;;;;;;3.88;97.14;98260.25;5032617;28;20032;-83
2021/04/13 03:46:02;;;;;;;0.20;0.20;;;;;;;3.57;97.24;98262.41;5017262;28;20022;-83
2021/04/13 03:48:30;;;;;;;0.28;0.28;;;;;;;3.61;98.68;98270.88;5018195;28;20030;-84
2021/04/13 03:51:12;;;;;;;0.30;0.30;;;;;;;3.67;99.09;98284.25;5018349;28;20103;-81
2021/04/13 03:53:44;;;;;;;0.68;0.55;;;;;;;3.54;97.52;98283.75;5017991;28;20022;-83
2021/04/13 03:56:13;;;;;;;0.43;0.40;;;;;;;3.57;98.20;98277.84;4998192;28;20006;-83
2021/04/13 03:58:41;;;;;;;0.40;0.40;;;;;;;3.55;98.69;98279.94;5014657;28;20026;-78
2021/04/13 04:01:10;;;;;;;1.95;0.40;;;;;;;3.42;98.06;98277.53;5015636;28;20058;-82
2021/04/13 04:03:39;;;;;;;0.73;0.40;;;;;;;3.40;98.48;98276.97;5020127;28;20018;-85
2021/04/13 04:06:05;;;;;;;0.30;0.30;;;;;;;3.28;99.09;98282.44;5021429;28;20057;-78
2021/04/13 04:08:46;;;;;;;0.52;0.52;;;;;;;3.32;98.93;98286.25;5019813;28;20033;-80
2021/04/13 04:11:12;;;;;;;0.55;0.55;;;;;;;3.31;99.50;98278.41;5013821;28;20026;-79
2021/04/13 04:13:49;;;;;;;0.60;0.60;;;;;;;3.21;99.51;98279.84;4996176;28;20509;-78
2021/04/13 04:16:32;;;;;;;1.92;1.08;;;;;;;3.32;98.57;98277.38;5023804;28;20072;-77
2021/04/13 04:19:30;;;;;;;1.83;0.43;;;;;;;3.19;98.90;98273.06;5033182;28;20071;-77
2021/04/13 04:22:01;;;;;;;0.45;0.45;;;;;;;3.05;99.71;98274.38;5037344;28;20046;-83
2021/04/13 04:24:34;;;;;;;0.50;0.50;;;;;;;3.06;98.95;98276.03;5033219;28;20126;-78
2021/04/13 04:27:14;;;;;;;0.52;0.52;;;;;;;3.12;99.84;98275.91;5031106;28;20037;-79
2021/04/13 04:30:04;;;;;;;0.82;0.60;;;;;;;3.00;99.73;98272.41;5030492;28;20078;-80
2021/04/13 04:32:29;;;;;;;0.60;0.60;;;;;;;3.10;100.00;98272.59;5011516;28;20032;-76
2021/04/13 04:34:57;;;;;;;0.70;0.70;;;;;;;3.00;100.00;98275.13;5030601;28;20025;-77
2021/04/13 04:37:24;;;;;;;1.90;0.95;;;;;;;2.89;99.19;98275.13;5027949;28;20085;-77
2021/04/13 04:40:12;;;;;;;1.30;0.70;;;;;;;2.98;100.00;98271.81;5030237;28;20018;-76
2021/04/13 04:42:47;;;;;;;0.95;0.65;;;;;;;2.95;100.00;98275.00;5012867;28;20402;-78
2021/04/13 04:45:20;;;;;;;0.68;0.68;;;;;;;3.08;100.00;98277.44;5012238;28;20124;-80
2021/04/13 04:47:47;;;;;;;0.60;0.60;;;;;;;2.83;99.61;98270.66;5022905;28;20033;-85
2021/04/13 04:50:19;;;;;;;0.60;0.60;;;;;;;2.91;100.00;98273.84;5031952;28;20041;-85
2021/04/13 04:52:45;;;;;;;0.70;0.70;;;;;;;2.82;100.00;98280.66;5031745;28;20111;-81
2021/04/13 04:55:11;;;;;;;0.90;0.90;;;;;;;2.92;100.00;98280.88;5031314;28;20049;-83
2021/04/13 04:57:37;;;;;;;0.85;0.80;;;;;;;3.02;100.00;98275.69;5032789;28;20513;-83
2021/04/13 05:00:05;;;;;;;1.35;0.52;;;;;;;3.07;100.00;98285.78;5033725;28;20050;-86
2021/04/13 05:02:30;;;;;;;6.32;1.25;;;;;;;3.01;99.66;98274.03;5016564;28;20030;-84
2021/04/13 05:04:56;;;;;;;1.88;0.90;;;;;;;2.94;100.00;98278.78;5016471;28;20067;-86
2021/04/13 05:07:21;;;;;;;2.83;2.00;;;;;;;3.00;100.00;98277.00;5032719;28;20100;-81
2021/04/13 05:09:47;;;;;;;2.35;1.55;;;;;;;2.90;100.00;98271.38;5038184;28;20029;-85
2021/04/13 05:12:13;;;;;;;0.73;0.52;;;;;;;2.78;100.00;98273.28;5021694;28;20040;-82
2021/04/13 05:14:42;;;;;;;2.17;1.67;;;;;;;2.88;100.00;98290.50;5036226;28;20039;-83
2021/04/13 05:17:07;;;;;;;1.98;1.17;;;;;;;2.98;100.00;98284.50;5016144;28;20025;-84
2021/04/13 05:19:32;;;;;;;1.45;1.27;;;;;;;3.03;100.00;98285.44;5032172;28;20422;-80
2021/04/13 05:21:58;;;;;;;4.75;1.50;;;;;;;2.93;100.00;98293.34;5030879;28;20037;-81
2021/04/13 05:24:24;;;;;;;9.23;1.08;;;;;;;2.96;100.00;98289.31;5013053;28;20028;-85
2021/04/13 05:26:49;;;;;;;2.60;0.88;;;;;;;2.98;100.00;98273.69;5014080;28;20436;-82
2021/04/13 05:29:15;;;;;;;3.40;1.13;;;;;;;2.92;99.34;98275.47;5031423;28;20029;-83
2021/04/13 05:31:42;;;;;;;1.20;0.68;;;;;;;3.03;99.30;98288.16;5031558;28;20056;-81
2021/04/13 05:34:08;;;;;;;1.05;0.88;;;;;;;2.97;97.41;98283.69;5032285;28;20033;-79
2021/04/13 05:36:35;;;;;;;0.73;0.65;;;;;;;2.75;97.76;98284.56;5032182;28;20022;-79
2021/04/13 05:39:02;;;;;;;0.80;0.80;;;;;;;2.81;98.15;98295.22;5031283;28;20104;-76
2021/04/13 05:41:27;;;;;;;0.32;0.32;;;;;;;2.67;98.22;98288.44;5032904;28;20064;-77
2021/04/13 05:43:53;;;;;;;1.70;0.73;;;;;;;2.75;98.53;98285.38;5032682;28;20056;-83
2021/04/13 05:46:25;;;;;;;0.60;0.60;;;;;;;2.65;98.52;98277.06;5015768;28;20064;-83
2021/04/13 05:48:51;;;;;;;0.75;0.75;;;;;;;2.49;97.66;98275.06;5019288;28;20501;-84
2021/04/13 05:51:17;;;;;;;2.22;0.45;;;;;;;2.60;98.94;98276.94;5014084;28;20643;-82
2021/04/13 05:53:42;;;;;;;0.57;0.57;;;;;;;2.59;98.52;98278.00;5025342;28;20053;-78
2021/04/13 05:56:12;;;;;;;0.52;0.52;;;;;;;2.51;98.64;98272.94;5027291;28;20025;-79
2021/04/13 05:58:46;;;;;;;1.08;0.77;;;;;;;2.65;99.12;98271.66;5031676;28;20120;-80
2021/04/13 06:01:13;;;;;;;0.82;0.80;;;;;;;2.79;100.00;98269.53;5033330;28;20033;-81
2021/04/13 06:03:40;;;;;;;0.93;0.85;;;;;;;2.76;97.96;98281.59;5032639;28;20029;-81
2021/04/13 06:06:06;;;;;;;0.63;0.63;;;;;;;2.66;97.55;98284.09;5032811;28;20108;-79
2021/04/13 06:08:31;;;;;;;4.55;2.80;;;;;;;2.61;97.87;98283.97;5030205;28;20053;-73
2021/04/13 06:10:57;;;;;;;6.80;4.72;;;;;;;2.79;98.36;98280.34;5012134;28;20502;-73
2021/04/13 06:13:24;;;;;;;4.05;3.10;;;;;;;2.95;99.15;98282.28;5014309;28;20120;-83
2021/04/13 06:15:54;;;;;;;1.48;0.88;;;;;;;2.86;97.60;98276.41;5026385;28;20061;-82
2021/04/13 06:18:19;;;;;;;1.95;1.17;;;;;;;2.88;97.50;98282.41;5041199;28;20035;-81
2021/04/13 06:20:45;;;;;;;0.57;0.55;;;;;;;2.83;97.36;98276.06;5039195;28;20112;-79
2021/04/13 06:23:10;;;;;;;0.55;0.55;;;;;;;3.08;96.88;98273.91;5034209;28;20037;-78
2021/04/13 06:25:36;;;;;;;2.40;1.35;;;;;;;3.01;97.41;98274.03;5016921;28;20033;-77
2021/04/13 06:28:02;;;;;;;1.42;1.33;;;;;;;2.97;97.49;98267.50;5016452;28;20192;-78
2021/04/13 06:30:28;;;;;;;6.10;2.67;;;;;;;2.82;97.47;98279.84;5034459;28;20021;-79
2021/04/13 06:32:54;;;;;;;6.03;2.40;;;;;;;2.93;97.85;98276.28;5035103;28;20034;-81
2021/04/13 06:35:21;;;;;;;4.18;1.35;;;;;;;2.87;97.67;98283.47;5034058;28;20619;-83
2021/04/13 06:37:48;;;;;;;0.95;0.77;;;;;;;2.73;96.43;98276.69;5035444;28;20183;-82
2021/04/13 06:40:49;;;;;;;2.17;1.27;;;;;;;2.90;98.52;98280.31;5036145;28;20021;-75
2021/04/13 06:43:24;;;;;;;3.63;2.13;;;;;;;2.96;97.98;98276.66;5035258;28;20512;-76
2021/04/13 06:45:58;;;;;;;2.35;1.10;;;;;;;2.85;96.87;98290.19;5018078;28;20497;-75
2021/04/13 06:48:59;;;;;;;2.22;1.60;;;;;;;2.64;97.19;98278.09;4999344;28;20038;-75
2021/04/13 06:52:11;;;;;;;1.33;1.13;;;;;;;2.40;99.16;98281.88;5023929;28;20057;-77
2021/04/13 06:54:54;;;;;;;4.03;2.00;;;;;;;2.26;100.00;98296.66;4958197;28;20041;-76
2021/04/13 06:57:34;;;;;;;3.30;2.35;;;;;;;2.13;100.00;98298.50;5008472;28;20081;-75
2021/04/13 07:00:02;;;;;;;3.53;2.17;;;;;;;2.09;100.00;98297.34;5012699;28;20033;-75
2021/04/13 07:02:58;;;;;;;3.40;2.75;;;;;;;2.08;100.00;98297.56;5032385;28;20037;-75
2021/04/13 07:05:39;;;;;;;3.72;2.58;;;;;;;2.06;100.00;98307.78;5032536;28;20486;-78
2021/04/13 07:08:12;;;;;;;3.33;2.00;;;;;;;2.19;100.00;98298.66;5032076;28;20092;-75
2021/04/13 07:10:46;;;;;;;2.67;1.13;;;;;;;2.14;100.00;98308.25;5032330;28;20040;-75
2021/04/13 07:13:17;;;;;;;5.30;2.67;;;;;;;2.22;100.00;98306.28;5032895;28;20088;-74
2021/04/13 07:16:12;;;;;;;1.73;1.27;;;;;;;2.22;100.00;98307.09;5032569;28;20029;-76
2021/04/13 07:18:47;;;;;;;0.85;0.80;;;;;;;2.40;100.00;98315.09;5014646;28;20037;-75
2021/04/13 07:21:27;;;;;;;5.28;3.15;;;;;;;2.42;99.74;98312.16;5031964;28;20025;-76
2021/04/13 07:24:05;;;;;;;4.88;1.85;;;;;;;2.36;100.00;98302.28;5032475;28;20040;-76
2021/04/13 07:26:42;;;;;;;3.10;2.20;;;;;;;2.59;100.00;98313.09;5031704;28;20024;-75
2021/04/13 07:29:19;;;;;;;3.00;2.13;;;;;;;2.60;100.00;98315.53;5031814;28;20817;-75
2021/04/13 07:31:51;;;;;;;;;;;;;;;2.64;99.65;98311.31;5032855;28;20026;-75
2021/04/13 07:34:16;;;;;;;16.77;9.25;;;;;;;2.59;99.28;98321.19;5032453;28;19917;-75
2021/04/13 07:36:47;;;;;;;10.90;5.20;;;;;;;2.64;99.54;98321.31;5032943;28;20022;-75
2021/04/13 07:39:13;;;;;;;3.53;2.33;;;;;;;2.79;99.56;98321.63;5033154;28;20027;-75
2021/04/13 07:41:53;;;;;;;3.42;3.08;;;;;;;2.86;97.32;98322.34;5033911;28;20021;-74
2021/04/13 07:44:43;;;;;;;3.25;2.15;;;;;;;2.97;97.25;98326.91;5034404;28;20037;-74
2021/04/13 07:48:08;;;;;;;2.28;1.92;;;;;;;2.96;97.39;98321.75;5015857;28;20048;-75
2021/04/13 07:50:56;;;;;;;2.55;2.10;;;;;;;2.68;96.00;98326.00;4973695;28;20054;-75
2021/04/13 07:54:04;;;;;;;1.73;1.63;;;;;;;2.53;98.15;98333.75;4976617;28;20050;-75
2021/04/13 07:56:54;;;;;;;8.98;1.80;;;;;;;2.54;97.78;98321.88;4952555;28;20059;-75
2021/04/13 08:00:00;;;;;;;2.75;1.88;;;;;;;2.31;97.96;98337.25;5056770;28;20469;-75
2021/04/13 08:02:25;;;;;;;4.75;2.05;;;;;;;2.33;98.95;98333.28;5036346;28;20029;-77
2021/04/13 08:04:51;;;;;;;3.00;1.70;;;;;;;2.27;99.27;98346.88;5052905;28;20476;-77
2021/04/13 08:07:46;;;;;;;1.60;1.50;;;;;;;2.23;99.17;98348.38;5051967;28;20079;-75
2021/04/13 08:10:27;;;;;;;1.50;1.30;;;;;;;2.08;98.83;98349.66;5046837;28;20120;-76
2021/04/13 08:12:57;;;;;;;3.50;1.58;;;;;;;2.11;99.50;98346.50;5033468;28;20052;-75
2021/04/13 08:15:39;;;;;;;1.90;1.70;;;;;;;2.13;99.63;98348.97;5051341;28;20032;-75
2021/04/13 08:18:14;;;;;;;2.40;1.70;;;;;;;2.33;100.00;98348.63;5050784;28;20029;-75
2021/04/13 08:20:43;;;;;;;4.47;2.00;;;;;;;2.53;98.75;98346.44;5051212;28;20078;-74
2021/04/13 08:23:24;;;;;;;3.72;1.85;;;;;;;2.16;98.42;98352.00;5052093;28;20025;-74
2021/04/13 08:25:54;;;;;;;3.05;2.08;;;;;;;2.12;98.89;98358.94;5051508;28;20505;-75
2021/04/13 08:28:23;;;;;;;2.92;2.63;;;;;;;2.26;99.44;98354.13;5050837;28;20028;-75
2021/04/13 08:34:03;;;;;;;5.60;1.83;;;;;;;2.87;99.28;98364.50;5052051;28;20062;-74
2021/04/13 08:36:46;;;;;;;6.80;4.15;;;;;;;3.01;97.89;98357.78;5057292;28;20040;-74
2021/04/13 08:39:39;;;;;;;2.95;2.10;;;;;;;2.62;95.19;98362.06;5039629;28;20055;-75
2021/04/13 08:42:30;;;;;;;2.70;2.00;;;;;;;2.28;96.74;98362.00;5049691;28;20074;-75
2021/04/13 08:45:05;;;;;;;2.50;2.10;;;;;;;2.21;98.07;98364.81;5006686;28;20149;-75
2021/04/13 08:48:00;;;;;;;3.58;2.42;;;;;;;2.23;97.80;98367.25;5023694;28;20032;-74
2021/04/13 08:50:30;;;;;;;2.45;2.10;;;;;;;2.17;98.47;98369.03;5030249;28;20021;-75
2021/04/13 08:53:09;;;;;;;2.95;2.33;;;;;;;2.04;98.58;98364.66;5036048;28;20061;-77
2021/04/13 08:55:37;;;;;;;4.07;2.78;;;;;;;2.01;98.55;98375.91;5030440;28;20083;-74
2021/04/13 08:58:14;;;;;;;3.40;2.58;;;;;;;1.89;99.67;98375.03;5030251;28;20882;-74
2021/04/13 09:00:47;;;;;;;5.60;2.83;;;;;;;2.03;99.53;98373.00;5030253;28;20030;-74
2021/04/13 09:03:16;;;;;;;4.10;2.47;;;;;;;2.16;98.49;98378.97;5029921;28;20033;-75
2021/04/13 09:05:42;;;;;;;6.55;3.90;;;;;;;2.01;98.30;98375.91;5029971;28;20025;-74
2021/04/13 09:08:30;;;;;;;3.70;3.03;;;;;;;2.03;98.82;98378.38;5029977;28;20026;-74
2021/04/13 09:11:29;;;;;;;4.60;2.78;;;;;;;2.00;99.54;98379.66;5030418;28;20038;-75
2021/04/13 09:14:01;;;;;;;2.92;2.38;;;;;;;1.95;98.83;98386.78;5004461;28;20047;-75
2021/04/13 09:16:30;;;;;;;5.70;3.42;;;;;;;2.00;98.83;98379.66;5030204;28;20438;-75
2021/04/13 09:18:58;;;;;;;8.00;3.22;;;;;;;1.84;99.19;98379.50;5022488;28;20030;-75
2021/04/13 09:21:45;;;;;;;4.22;3.47;;;;;;;1.92;100.00;98382.69;5030015;28;20057;-75
2021/04/13 09:24:19;;;;;;;5.13;3.20;;;;;;;1.91;99.85;98381.03;5031003;28;20030;-76
2021/04/13 09:26:51;;;;;;;4.93;3.25;;;;;;;2.05;100.00;98387.06;5030674;28;20489;-75
2021/04/13 09:29:35;;;;;;;3.40;2.00;;;;;;;2.05;99.19;98382.50;5031733;28;20029;-75
2021/04/13 09:32:31;;;;;;;2.92;1.98;;;;;;;2.13;99.54;98384.03;5033959;28;20044;-75
2021/04/13 09:35:24;;;;;;;3.40;1.95;;;;;;;2.07;99.05;98379.53;5031349;28;20887;-75
2021/04/13 09:37:59;;;;;;;3.08;2.50;;;;;;;2.06;98.29;98384.16;5032598;28;20029;-74
2021/04/13 09:40:59;;;;;;;3.08;2.67;;;;;;;2.21;97.75;98380.19;5035237;28;20470;-75
2021/04/13 09:43:43;;;;;;;3.60;2.05;;;;;;;2.13;98.06;98386.75;5037261;28;20049;-75
2021/04/13 09:46:33;;;;;;;4.47;2.08;;;;;;;2.17;99.05;98375.25;5018402;28;20036;-75
2021/04/13 09:49:43;;;;;;;3.10;2.65;;;;;;;2.01;98.66;98377.78;5030198;28;20060;-73
2021/04/13 09:52:41;;;;;;;3.05;2.30;;;;;;;2.09;97.77;98377.47;4998391;28;20053;-74
2021/04/13 09:55:25;;;;;;;2.72;2.28;;;;;;;2.29;97.71;98371.75;5015692;28;20387;-74
2021/04/13 09:58:09;;;;;;;3.40;2.25;;;;;;;2.24;97.96;98374.31;5032626;28;20096;-75
2021/04/13 10:00:41;;;;;;;2.30;2.13;;;;;;;2.41;98.23;98373.41;5033586;28;20029;-74
2021/04/13 10:03:34;;;;;;;1.83;1.70;;;;;;;2.50;96.80;98369.31;5033063;28;20471;-74
2021/04/13 10:06:01;;;;;;;2.20;1.80;;;;;;;2.34;96.50;98369.19;5033358;28;20065;-74
2021/04/13 10:08:34;;;;;;;1.60;1.38;;;;;;;2.34;97.45;98370.00;5015073;28;20025;-74
2021/04/13 10:11:09;;;;;;;3.70;3.28;;;;;;;2.37;98.04;98371.41;5033738;28;20040;-74
2021/04/13 10:14:12;;;;;;;2.53;1.98;;;;;;;2.59;96.40;98373.31;5034003;28;20037;-74
2021/04/13 10:16:56;;;;;;;2.00;1.55;;;;;;;2.51;96.59;98370.94;5033197;28;20139;-74
2021/04/13 10:19:33;;;;;;;2.10;1.60;;;;;;;2.36;97.65;98367.88;5033345;28;20499;-73
2021/04/13 10:22:26;;;;;;;2.00;1.45;;;;;;;2.45;97.06;98365.66;5032914;28;20025;-75
2021/04/13 10:25:06;;;;;;;2.67;1.80;;;;;;;2.41;97.35;98364.50;5014456;28;20037;-75
2021/04/13 10:28:09;;;;;;;2.75;2.03;;;;;;;2.37;98.00;98371.41;5014332;28;20037;-73
2021/04/13 10:31:12;;;;;;;2.67;1.70;;;;;;;2.39;96.96;98358.50;5032647;28;20367;-74
2021/04/13 10:33:46;;;;;;;2.30;1.90;;;;;;;2.45;97.96;98360.25;5032469;28;20056;-73
2021/04/13 10:36:30;;;;;;;1.90;1.55;;;;;;;2.53;97.54;98360.75;5032731;28;20064;-74
2021/04/13 10:39:32;;;;;;;3.03;2.10;;;;;;;2.61;97.63;98360.41;5032539;28;20552;-74
2021/04/13 10:42:17;;;;;;;2.17;1.67;;;;;;;2.50;96.55;98358.53;5033334;28;20036;-74
2021/04/13 10:45:05;;;;;;;1.88;1.75;;;;;;;2.37;96.54;98357.91;4985023;28;20088;-75
2021/04/13 10:47:40;;;;;;;2.13;1.52;;;;;;;2.48;96.95;98357.09;5012932;28;20485;-74
2021/04/13 10:50:44;;;;;;;3.00;2.33;;;;;;;2.57;97.37;98353.00;5040425;28;20022;-75
2021/04/13 10:53:18;;;;;;;3.20;1.98;;;;;;;2.59;96.92;98353.59;5039472;28;20049;-74
2021/04/13 10:56:16;;;;;;;1.92;1.83;;;;;;;2.44;98.13;98347.84;5035041;28;20427;-75
2021/04/13 10:59:01;;;;;;;4.22;2.95;;;;;;;2.61;96.95;98348.78;5033269;28;20022;-75
2021/04/13 11:01:53;;;;;;;9.40;4.63;;;;;;;2.47;97.61;98352.78;5032370;28;20485;-76
2021/04/13 11:04:55;;;;;;;5.90;2.42;;;;;;;2.52;98.24;98360.97;5031596;28;20029;-76
2021/04/13 11:07:46;;;;;;;2.40;2.20;;;;;;;2.59;99.34;98359.00;5032069;28;20176;-75
2021/04/13 11:10:17;;;;;;;2.63;1.90;;;;;;;2.56;99.05;98362.16;5032051;28;20489;-76
2021/04/13 11:13:03;;;;;;;4.90;3.22;;;;;;;2.49;99.00;98356.03;5031396;28;20029;-75
2021/04/13 11:15:38;;;;;;;;;;;;;;;2.38;99.10;98356.88;5027011;28;20184;-76
2021/04/13 11:18:34;;;;;;;2.17;1.73;;;;;;;2.54;99.65;98353.47;5030119;28;19936;-75
2021/04/13 11:21:20;;;;;;;2.13;2.00;;;;;;;2.62;98.08;98355.81;5025717;28;20591;-75
2021/04/13 11:24:22;;;;;;;3.95;1.85;;;;;;;2.50;98.60;98363.09;5025930;28;20029;-74
2021/04/13 11:27:25;;;;;;;4.10;2.15;;;;;;;2.60;100.00;98355.25;5008250;28;20037;-78
2021/04/13 11:30:18;;;;;;;3.08;1.88;;;;;;;2.72;99.23;98366.88;5027257;28;20017;-79
2021/04/13 11:33:22;;;;;;;2.10;1.88;;;;;;;3.04;100.00;98370.81;5028778;28;20561;-81
2021/04/13 11:35:53;;;;;;;2.72;2.03;;;;;;;2.82;98.24;98372.47;4978785;28;20041;-84
2021/04/13 11:38:49;;;;;;;2.65;1.98;;;;;;;2.72;99.10;98358.78;5019121;28;20382;-84
2021/04/13 11:41:45;;;;;;;1.42;1.33;;;;;;;2.87;100.00;98356.41;5023576;28;20091;-84
2021/04/13 11:44:29;;;;;;;2.55;1.60;;;;;;;3.00;99.45;98366.16;5029298;28;20103;-80
2021/04/13 11:47:36;;;;;;;2.08;1.88;;;;;;;2.92;98.26;98361.09;5028977;28;20170;-84
2021/04/13 11:50:15;;;;;;;2.05;1.67;;;;;;;3.07;97.99;98358.75;5000882;28;20402;-81
2021/04/13 11:52:47;;;;;;;1.75;1.50;;;;;;;2.80;98.32;98369.19;5030052;28;20041;-77
2021/04/13 11:55:34;;;;;;;1.70;1.60;;;;;;;2.82;97.45;98361.69;5029256;28;20035;-78
2021/04/13 11:58:15;;;;;;;6.57;2.03;;;;;;;3.09;97.80;98362.84;5029132;28;20030;-81
2021/04/13 12:00:45;;;;;;;2.38;1.63;;;;;;;2.91;98.89;98349.47;5030282;28;20083;-78
2021/04/13 12:03:39;;;;;;;2.08;1.75;;;;;;;2.96;97.31;98360.38;5031247;28;20550;-77
2021/04/13 12:06:12;;;;;;;2.78;1.65;;;;;;;3.09;97.82;98349.34;5024971;28;20033;-76
2021/04/13 12:08:44;;;;;;;3.33;1.83;;;;;;;3.15;97.62;98356.50;5011432;28;20037;-79
2021/04/13 12:11:13;;;;;;;1.48;1.35;;;;;;;3.36;97.79;98351.50;5009793;28;20421;-80
2021/04/13 12:13:40;;;;;;;1.98;1.60;;;;;;;3.59;96.66;98352.25;5030650;28;20045;-81
2021/04/13 12:16:07;;;;;;;1.30;1.00;;;;;;;3.72;93.85;98353.84;5031186;28;20021;-82
2021/04/13 12:18:35;;;;;;;1.08;1.02;;;;;;;3.94;94.68;98359.41;5031117;28;20510;-81
2021/04/13 12:21:27;;;;;;;3.83;1.70;;;;;;;3.96;93.44;98363.50;5014637;28;20095;-83
2021/04/13 12:23:55;;;;;;;1.55;1.08;;;;;;;3.95;92.28;98361.84;5002403;28;20044;-84
2021/04/13 12:26:36;;;;;;;1.77;1.40;;;;;;;3.67;93.15;98361.84;5033206;28;20086;-82
2021/04/13 12:29:32;;;;;;;1.13;1.02;;;;;;;3.42;95.00;98361.34;5034924;28;20040;-81
2021/04/13 12:32:13;;;;;;;3.03;1.58;;;;;;;3.63;96.32;98356.09;5030622;28;20034;-81